sensor_id;sensor_type;location;lat;lon;timestamp;temperature;humidity
14737;DHT22;7459;53.590;10.062;2023-04-15T00:01:19;9.10;99.90
14737;DHT22;7459;53.590;10.062;2023-04-15T00:03:45;9.10;99.90
14737;DHT22;7459;53.590;10.062;2023-04-15T00:06:11;9.10;99.90
14737;DHT22;7459;53.590;10.062;2023-04-15T00:08:38;9.10;99.90
14737;DHT22;7459;53.590;10.062;2023-04-15T00:11:04;9.10;99.90
14737;DHT22;7459;53.590;10.062;2023-04-15T00:13:30;9.00;99.90
14737;DHT22;7459;53.590;10.062;2023-04-15T00:15:58;9.00;99.90
14737;DHT22;7459;53.590;10.062;2023-04-15T00:18:24;9.00;99.90
14737;DHT22;7459;53.590;10.062;2023-04-15T00:20:50;9.00;99.90
14737;DHT22;7459;53.590;10.062;2023-04-15T00:23:15;9.00;99.90
14737;DHT22;7459;53.590;10.062;2023-04-15T00:25:41;9.00;99.90
14737;DHT22;7459;53.590;10.062;2023-04-15T00:28:07;8.90;99.90
14737;DHT22;7459;53.590;10.062;2023-04-15T00:30:32;8.90;99.90
14737;DHT22;7459;53.590;10.062;2023-04-15T00:32:59;8.90;99.90
14737;DHT22;7459;53.590;10.062;2023-04-15T00:35:26;9.00;99.90
14737;DHT22;7459;53.590;10.062;2023-04-15T00:37:52;8.90;99.90
14737;DHT22;7459;53.590;10.062;2023-04-15T00:40:18;8.90;99.90
14737;DHT22;7459;53.590;10.062;2023-04-15T00:42:45;9.00;99.90
14737;DHT22;7459;53.590;10.062;2023-04-15T00:45:11;9.00;99.90
14737;DHT22;7459;53.590;10.062;2023-04-15T00:47:38;9.00;99.90
14737;DHT22;7459;53.590;10.062;2023-04-15T00:50:06;8.90;99.90
14737;DHT22;7459;53.590;10.062;2023-04-15T00:52:32;9.00;99.90
14737;DHT22;7459;53.590;10.062;2023-04-15T00:54:59;9.00;99.90
14737;DHT22;7459;53.590;10.062;2023-04-15T00:57:25;9.00;99.90
14737;DHT22;7459;53.590;10.062;2023-04-15T00:59:54;9.00;99.90
14737;DHT22;7459;53.590;10.062;2023-04-15T01:02:21;9.00;99.90
14737;DHT22;7459;53.590;10.062;2023-04-15T01:04:47;9.00;99.90
14737;DHT22;7459;53.590;10.062;2023-04-15T01:07:12;9.00;99.90
14737;DHT22;7459;53.590;10.062;2023-04-15T01:09:38;9.00;99.90
14737;DHT22;7459;53.590;10.062;2023-04-15T01:12:05;9.00;99.90
14737;DHT22;7459;53.590;10.062;2023-04-15T01:14:33;9.00;99.90
14737;DHT22;7459;53.590;10.062;2023-04-15T01:16:58;9.00;99.90
14737;DHT22;7459;53.590;10.062;2023-04-15T01:19:24;9.00;99.90
14737;DHT22;7459;53.590;10.062;2023-04-15T01:21:50;9.00;99.90
14737;DHT22;7459;53.590;10.062;2023-04-15T01:24:17;8.90;99.90
14737;DHT22;7459;53.590;10.062;2023-04-15T01:26:44;8.90;99.90
14737;DHT22;7459;53.590;10.062;2023-04-15T01:29:10;8.90;99.90
14737;DHT22;7459;53.590;10.062;2023-04-15T01:31:36;8.90;99.90
14737;DHT22;7459;53.590;10.062;2023-04-15T01:34:02;8.80;99.90
14737;DHT22;7459;53.590;10.062;2023-04-15T01:36:27;8.80;99.90
14737;DHT22;7459;53.590;10.062;2023-04-15T01:38:54;8.80;99.90
14737;DHT22;7459;53.590;10.062;2023-04-15T01:41:25;8.80;99.90
14737;DHT22;7459;53.590;10.062;2023-04-15T01:43:51;8.80;99.90
14737;DHT22;7459;53.590;10.062;2023-04-15T01:46:17;8.90;99.90
14737;DHT22;7459;53.590;10.062;2023-04-15T01:48:43;8.80;99.90
14737;DHT22;7459;53.590;10.062;2023-04-15T01:51:09;8.80;99.90
14737;DHT22;7459;53.590;10.062;2023-04-15T01:53:34;8.80;99.90
14737;DHT22;7459;53.590;10.062;2023-04-15T01:56:00;8.80;99.90
14737;DHT22;7459;53.590;10.062;2023-04-15T01:58:26;8.80;99.90
14737;DHT22;7459;53.590;10.062;2023-04-15T02:00:52;8.80;99.90
14737;DHT22;7459;53.590;10.062;2023-04-15T02:05:53;8.80;99.90
14737;DHT22;7459;53.590;10.062;2023-04-15T02:08:19;8.80;99.90
14737;DHT22;7459;53.590;10.062;2023-04-15T02:10:44;8.80;99.90
14737;DHT22;7459;53.590;10.062;2023-04-15T02:13:10;8.80;99.90
14737;DHT22;7459;53.590;10.062;2023-04-15T02:15:36;8.80;99.90
14737;DHT22;7459;53.590;10.062;2023-04-15T02:18:03;8.80;99.90
14737;DHT22;7459;53.590;10.062;2023-04-15T02:20:29;8.80;99.90
14737;DHT22;7459;53.590;10.062;2023-04-15T02:22:55;8.80;99.90
14737;DHT22;7459;53.590;10.062;2023-04-15T02:25:21;8.80;99.90
14737;DHT22;7459;53.590;10.062;2023-04-15T02:27:47;8.80;99.90
14737;DHT22;7459;53.590;10.062;2023-04-15T02:30:13;8.80;99.90
14737;DHT22;7459;53.590;10.062;2023-04-15T02:32:39;8.80;99.90
14737;DHT22;7459;53.590;10.062;2023-04-15T02:35:08;8.80;99.90
14737;DHT22;7459;53.590;10.062;2023-04-15T02:37:35;8.80;99.90
14737;DHT22;7459;53.590;10.062;2023-04-15T02:40:07;8.80;99.90
14737;DHT22;7459;53.590;10.062;2023-04-15T02:42:40;8.80;99.90
14737;DHT22;7459;53.590;10.062;2023-04-15T02:45:07;8.80;99.90
14737;DHT22;7459;53.590;10.062;2023-04-15T02:47:34;8.80;99.90
14737;DHT22;7459;53.590;10.062;2023-04-15T02:50:03;8.80;99.90
14737;DHT22;7459;53.590;10.062;2023-04-15T02:52:29;8.80;99.90
14737;DHT22;7459;53.590;10.062;2023-04-15T02:54:55;8.80;99.90
14737;DHT22;7459;53.590;10.062;2023-04-15T02:57:25;8.80;99.90
14737;DHT22;7459;53.590;10.062;2023-04-15T02:59:53;8.80;99.90
14737;DHT22;7459;53.590;10.062;2023-04-15T03:02:18;8.80;99.90
14737;DHT22;7459;53.590;10.062;2023-04-15T03:04:44;8.80;99.90
14737;DHT22;7459;53.590;10.062;2023-04-15T03:07:10;8.80;99.90
14737;DHT22;7459;53.590;10.062;2023-04-15T03:09:36;8.70;99.90
14737;DHT22;7459;53.590;10.062;2023-04-15T03:12:04;8.70;99.90
14737;DHT22;7459;53.590;10.062;2023-04-15T03:14:29;8.70;99.90
14737;DHT22;7459;53.590;10.062;2023-04-15T03:16:55;8.70;99.90
14737;DHT22;7459;53.590;10.062;2023-04-15T03:19:23;8.70;99.90
14737;DHT22;7459;53.590;10.062;2023-04-15T03:21:49;8.70;99.90
14737;DHT22;7459;53.590;10.062;2023-04-15T03:24:14;8.70;99.90
14737;DHT22;7459;53.590;10.062;2023-04-15T03:26:40;8.70;99.90
14737;DHT22;7459;53.590;10.062;2023-04-15T03:29:06;8.70;99.90
14737;DHT22;7459;53.590;10.062;2023-04-15T03:31:32;8.80;99.90
14737;DHT22;7459;53.590;10.062;2023-04-15T03:33:57;8.70;99.90
14737;DHT22;7459;53.590;10.062;2023-04-15T03:36:23;8.80;99.90
14737;DHT22;7459;53.590;10.062;2023-04-15T03:38:49;8.80;99.90
14737;DHT22;7459;53.590;10.062;2023-04-15T03:41:14;8.80;99.90
14737;DHT22;7459;53.590;10.062;2023-04-15T03:43:40;8.80;99.90
14737;DHT22;7459;53.590;10.062;2023-04-15T03:46:06;8.80;99.90
14737;DHT22;7459;53.590;10.062;2023-04-15T03:48:31;8.80;99.90
14737;DHT22;7459;53.590;10.062;2023-04-15T03:50:57;8.80;99.90
14737;DHT22;7459;53.590;10.062;2023-04-15T03:53:23;8.80;99.90
14737;DHT22;7459;53.590;10.062;2023-04-15T03:55:49;8.80;99.90
14737;DHT22;7459;53.590;10.062;2023-04-15T03:58:14;8.80;99.90
14737;DHT22;7459;53.590;10.062;2023-04-15T04:00:40;8.70;99.90
14737;DHT22;7459;53.590;10.062;2023-04-15T04:03:06;8.80;99.90
14737;DHT22;7459;53.590;10.062;2023-04-15T04:05:32;8.80;99.90
14737;DHT22;7459;53.590;10.062;2023-04-15T04:07:58;8.80;99.90
14737;DHT22;7459;53.590;10.062;2023-04-15T04:10:24;8.80;99.90
14737;DHT22;7459;53.590;10.062;2023-04-15T04:12:49;8.80;99.90
14737;DHT22;7459;53.590;10.062;2023-04-15T04:15:15;8.80;99.90
14737;DHT22;7459;53.590;10.062;2023-04-15T04:17:41;8.80;99.90
14737;DHT22;7459;53.590;10.062;2023-04-15T04:20:07;8.80;99.90
14737;DHT22;7459;53.590;10.062;2023-04-15T04:22:39;8.80;99.90
14737;DHT22;7459;53.590;10.062;2023-04-15T04:25:06;8.80;99.90
14737;DHT22;7459;53.590;10.062;2023-04-15T04:27:33;8.80;99.90
14737;DHT22;7459;53.590;10.062;2023-04-15T04:29:59;8.80;99.90
14737;DHT22;7459;53.590;10.062;2023-04-15T04:32:25;8.80;99.90
14737;DHT22;7459;53.590;10.062;2023-04-15T04:34:50;8.80;99.90
14737;DHT22;7459;53.590;10.062;2023-04-15T04:37:16;8.80;99.90
14737;DHT22;7459;53.590;10.062;2023-04-15T04:39:42;8.80;99.90
14737;DHT22;7459;53.590;10.062;2023-04-15T04:42:08;8.90;99.90
14737;DHT22;7459;53.590;10.062;2023-04-15T04:44:33;8.80;99.90
14737;DHT22;7459;53.590;10.062;2023-04-15T04:46:59;8.90;99.90
14737;DHT22;7459;53.590;10.062;2023-04-15T04:49:25;8.80;99.90
14737;DHT22;7459;53.590;10.062;2023-04-15T04:51:51;8.80;99.90
14737;DHT22;7459;53.590;10.062;2023-04-15T04:54:17;8.80;99.90
14737;DHT22;7459;53.590;10.062;2023-04-15T04:56:42;8.90;99.90
14737;DHT22;7459;53.590;10.062;2023-04-15T04:59:08;8.90;99.90
14737;DHT22;7459;53.590;10.062;2023-04-15T05:01:34;8.80;99.90
14737;DHT22;7459;53.590;10.062;2023-04-15T05:04:00;8.80;99.90
14737;DHT22;7459;53.590;10.062;2023-04-15T05:06:26;8.80;99.90
14737;DHT22;7459;53.590;10.062;2023-04-15T05:08:52;8.90;99.90
14737;DHT22;7459;53.590;10.062;2023-04-15T05:11:17;8.80;99.90
14737;DHT22;7459;53.590;10.062;2023-04-15T05:13:43;8.80;99.90
14737;DHT22;7459;53.590;10.062;2023-04-15T05:16:09;8.80;99.90
14737;DHT22;7459;53.590;10.062;2023-04-15T05:18:34;8.80;99.90
14737;DHT22;7459;53.590;10.062;2023-04-15T05:21:01;8.80;99.90
14737;DHT22;7459;53.590;10.062;2023-04-15T05:23:27;8.80;99.90
14737;DHT22;7459;53.590;10.062;2023-04-15T05:25:53;8.80;99.90
14737;DHT22;7459;53.590;10.062;2023-04-15T05:28:18;8.80;99.90
14737;DHT22;7459;53.590;10.062;2023-04-15T05:30:44;8.80;99.90
14737;DHT22;7459;53.590;10.062;2023-04-15T05:33:10;8.80;99.90
14737;DHT22;7459;53.590;10.062;2023-04-15T05:35:36;8.80;99.90
14737;DHT22;7459;53.590;10.062;2023-04-15T05:38:02;8.80;99.90
14737;DHT22;7459;53.590;10.062;2023-04-15T05:40:29;8.90;99.90
14737;DHT22;7459;53.590;10.062;2023-04-15T05:42:55;8.90;99.90
14737;DHT22;7459;53.590;10.062;2023-04-15T05:45:21;8.90;99.90
14737;DHT22;7459;53.590;10.062;2023-04-15T05:47:46;8.90;99.90
14737;DHT22;7459;53.590;10.062;2023-04-15T05:50:14;8.90;99.90
14737;DHT22;7459;53.590;10.062;2023-04-15T05:52:40;9.00;99.90
14737;DHT22;7459;53.590;10.062;2023-04-15T05:55:06;9.00;99.90
14737;DHT22;7459;53.590;10.062;2023-04-15T05:57:32;9.00;99.90
14737;DHT22;7459;53.590;10.062;2023-04-15T05:59:57;8.90;99.90
14737;DHT22;7459;53.590;10.062;2023-04-15T06:02:23;9.00;99.90
14737;DHT22;7459;53.590;10.062;2023-04-15T06:04:49;9.00;99.90
14737;DHT22;7459;53.590;10.062;2023-04-15T06:07:14;9.00;99.90
14737;DHT22;7459;53.590;10.062;2023-04-15T06:09:40;9.00;99.90
14737;DHT22;7459;53.590;10.062;2023-04-15T06:12:06;8.90;99.90
14737;DHT22;7459;53.590;10.062;2023-04-15T06:14:36;9.00;99.90
14737;DHT22;7459;53.590;10.062;2023-04-15T06:17:03;9.00;99.90
14737;DHT22;7459;53.590;10.062;2023-04-15T06:19:28;9.00;99.90
14737;DHT22;7459;53.590;10.062;2023-04-15T06:21:55;9.00;99.90
14737;DHT22;7459;53.590;10.062;2023-04-15T06:24:20;9.10;99.90
14737;DHT22;7459;53.590;10.062;2023-04-15T06:26:46;9.10;99.90
14737;DHT22;7459;53.590;10.062;2023-04-15T06:29:12;9.10;99.90
14737;DHT22;7459;53.590;10.062;2023-04-15T06:31:37;9.10;99.90
14737;DHT22;7459;53.590;10.062;2023-04-15T06:34:03;9.10;99.90
14737;DHT22;7459;53.590;10.062;2023-04-15T06:36:29;9.10;99.90
14737;DHT22;7459;53.590;10.062;2023-04-15T06:38:55;9.10;99.90
14737;DHT22;7459;53.590;10.062;2023-04-15T06:41:21;9.10;99.90
14737;DHT22;7459;53.590;10.062;2023-04-15T06:43:47;9.10;99.90
14737;DHT22;7459;53.590;10.062;2023-04-15T06:46:12;9.10;99.90
14737;DHT22;7459;53.590;10.062;2023-04-15T06:48:38;9.10;99.90
14737;DHT22;7459;53.590;10.062;2023-04-15T06:51:04;9.10;99.90
14737;DHT22;7459;53.590;10.062;2023-04-15T06:53:30;9.20;99.90
14737;DHT22;7459;53.590;10.062;2023-04-15T06:55:57;9.10;99.90
14737;DHT22;7459;53.590;10.062;2023-04-15T06:58:22;9.20;99.90
14737;DHT22;7459;53.590;10.062;2023-04-15T07:00:48;9.20;99.90
14737;DHT22;7459;53.590;10.062;2023-04-15T07:03:14;9.20;99.90
14737;DHT22;7459;53.590;10.062;2023-04-15T07:05:40;9.20;99.90
14737;DHT22;7459;53.590;10.062;2023-04-15T07:08:05;9.20;99.90
14737;DHT22;7459;53.590;10.062;2023-04-15T07:10:32;9.20;99.90
14737;DHT22;7459;53.590;10.062;2023-04-15T07:12:58;9.20;99.90
14737;DHT22;7459;53.590;10.062;2023-04-15T07:15:24;9.20;99.90
14737;DHT22;7459;53.590;10.062;2023-04-15T07:17:50;9.20;99.90
14737;DHT22;7459;53.590;10.062;2023-04-15T07:20:15;9.20;99.90
14737;DHT22;7459;53.590;10.062;2023-04-15T07:22:41;9.20;99.90
14737;DHT22;7459;53.590;10.062;2023-04-15T07:25:07;9.20;99.90
14737;DHT22;7459;53.590;10.062;2023-04-15T07:27:33;9.20;99.90
14737;DHT22;7459;53.590;10.062;2023-04-15T07:29:59;9.20;99.90
14737;DHT22;7459;53.590;10.062;2023-04-15T07:32:24;9.20;99.90
14737;DHT22;7459;53.590;10.062;2023-04-15T07:34:50;9.20;99.90
14737;DHT22;7459;53.590;10.062;2023-04-15T07:37:16;9.20;99.90
14737;DHT22;7459;53.590;10.062;2023-04-15T07:39:41;9.20;99.90
14737;DHT22;7459;53.590;10.062;2023-04-15T07:42:08;9.20;99.90
14737;DHT22;7459;53.590;10.062;2023-04-15T07:44:33;9.30;99.90
14737;DHT22;7459;53.590;10.062;2023-04-15T07:47:00;9.30;99.90
14737;DHT22;7459;53.590;10.062;2023-04-15T07:49:26;9.30;99.90
14737;DHT22;7459;53.590;10.062;2023-04-15T07:51:52;9.30;99.90
14737;DHT22;7459;53.590;10.062;2023-04-15T07:54:18;9.30;99.90
14737;DHT22;7459;53.590;10.062;2023-04-15T07:56:44;9.30;99.90
14737;DHT22;7459;53.590;10.062;2023-04-15T07:59:09;9.30;99.90
14737;DHT22;7459;53.590;10.062;2023-04-15T08:01:35;9.30;99.90
14737;DHT22;7459;53.590;10.062;2023-04-15T08:04:02;9.40;99.90
14737;DHT22;7459;53.590;10.062;2023-04-15T08:06:28;9.40;99.90
14737;DHT22;7459;53.590;10.062;2023-04-15T08:08:54;9.50;99.90
14737;DHT22;7459;53.590;10.062;2023-04-15T08:11:20;9.50;99.90
14737;DHT22;7459;53.590;10.062;2023-04-15T08:13:46;9.50;99.90
14737;DHT22;7459;53.590;10.062;2023-04-15T08:16:20;9.50;99.90
14737;DHT22;7459;53.590;10.062;2023-04-15T08:18:51;9.50;99.90
14737;DHT22;7459;53.590;10.062;2023-04-15T08:21:18;9.50;99.90
14737;DHT22;7459;53.590;10.062;2023-04-15T08:23:45;9.50;99.90
14737;DHT22;7459;53.590;10.062;2023-04-15T08:26:12;9.50;99.90
14737;DHT22;7459;53.590;10.062;2023-04-15T08:28:40;9.50;99.90
14737;DHT22;7459;53.590;10.062;2023-04-15T08:31:06;9.50;99.90
14737;DHT22;7459;53.590;10.062;2023-04-15T08:33:32;9.50;99.90
14737;DHT22;7459;53.590;10.062;2023-04-15T08:35:58;9.50;99.90
14737;DHT22;7459;53.590;10.062;2023-04-15T08:38:24;9.50;99.90
14737;DHT22;7459;53.590;10.062;2023-04-15T08:40:49;9.50;99.90
14737;DHT22;7459;53.590;10.062;2023-04-15T08:43:21;9.50;99.90
14737;DHT22;7459;53.590;10.062;2023-04-15T08:45:51;9.60;99.90
14737;DHT22;7459;53.590;10.062;2023-04-15T08:48:18;9.60;99.90
14737;DHT22;7459;53.590;10.062;2023-04-15T08:50:44;9.60;99.90
14737;DHT22;7459;53.590;10.062;2023-04-15T08:53:11;9.60;99.90
14737;DHT22;7459;53.590;10.062;2023-04-15T08:55:42;9.70;99.90
14737;DHT22;7459;53.590;10.062;2023-04-15T08:58:10;9.70;99.90
14737;DHT22;7459;53.590;10.062;2023-04-15T09:00:36;9.70;99.90
14737;DHT22;7459;53.590;10.062;2023-04-15T09:03:06;9.70;99.90
14737;DHT22;7459;53.590;10.062;2023-04-15T09:05:33;9.70;99.90
14737;DHT22;7459;53.590;10.062;2023-04-15T09:08:00;9.70;99.90
14737;DHT22;7459;53.590;10.062;2023-04-15T09:10:27;9.80;99.90
14737;DHT22;7459;53.590;10.062;2023-04-15T09:12:53;9.80;99.90
14737;DHT22;7459;53.590;10.062;2023-04-15T09:15:19;9.80;99.90
14737;DHT22;7459;53.590;10.062;2023-04-15T09:17:45;9.80;99.90
14737;DHT22;7459;53.590;10.062;2023-04-15T09:20:14;9.90;99.90
14737;DHT22;7459;53.590;10.062;2023-04-15T09:22:42;9.90;99.90
14737;DHT22;7459;53.590;10.062;2023-04-15T09:27:48;9.90;99.90
14737;DHT22;7459;53.590;10.062;2023-04-15T09:30:15;9.90;99.90
14737;DHT22;7459;53.590;10.062;2023-04-15T09:32:58;9.90;99.90
14737;DHT22;7459;53.590;10.062;2023-04-15T09:35:26;10.00;99.90
14737;DHT22;7459;53.590;10.062;2023-04-15T09:37:53;10.00;99.90
14737;DHT22;7459;53.590;10.062;2023-04-15T09:40:35;10.10;99.90
14737;DHT22;7459;53.590;10.062;2023-04-15T09:43:03;10.10;99.90
14737;DHT22;7459;53.590;10.062;2023-04-15T09:45:31;10.10;99.90
14737;DHT22;7459;53.590;10.062;2023-04-15T09:47:59;10.20;99.90
14737;DHT22;7459;53.590;10.062;2023-04-15T09:50:40;10.20;99.90
14737;DHT22;7459;53.590;10.062;2023-04-15T09:53:14;10.30;99.90
14737;DHT22;7459;53.590;10.062;2023-04-15T09:55:53;10.40;99.90
14737;DHT22;7459;53.590;10.062;2023-04-15T09:58:25;10.50;99.90
14737;DHT22;7459;53.590;10.062;2023-04-15T10:00:53;10.60;99.90
14737;DHT22;7459;53.590;10.062;2023-04-15T10:03:22;10.60;99.90
14737;DHT22;7459;53.590;10.062;2023-04-15T10:05:57;10.60;99.90
14737;DHT22;7459;53.590;10.062;2023-04-15T10:08:27;10.60;99.90
14737;DHT22;7459;53.590;10.062;2023-04-15T10:10:54;10.60;99.90
14737;DHT22;7459;53.590;10.062;2023-04-15T10:13:22;10.70;99.90
14737;DHT22;7459;53.590;10.062;2023-04-15T10:16:02;10.70;99.90
14737;DHT22;7459;53.590;10.062;2023-04-15T10:18:34;10.70;99.90
14737;DHT22;7459;53.590;10.062;2023-04-15T10:21:01;10.70;99.90
14737;DHT22;7459;53.590;10.062;2023-04-15T10:23:27;10.80;99.90
14737;DHT22;7459;53.590;10.062;2023-04-15T10:25:53;10.90;99.90
14737;DHT22;7459;53.590;10.062;2023-04-15T10:28:20;11.10;99.90
14737;DHT22;7459;53.590;10.062;2023-04-15T10:30:49;11.10;99.90
14737;DHT22;7459;53.590;10.062;2023-04-15T10:33:16;11.20;99.90
14737;DHT22;7459;53.590;10.062;2023-04-15T10:35:45;11.20;99.90
14737;DHT22;7459;53.590;10.062;2023-04-15T10:38:40;11.20;99.90
14737;DHT22;7459;53.590;10.062;2023-04-15T10:41:21;11.30;99.90
14737;DHT22;7459;53.590;10.062;2023-04-15T10:43:51;11.40;99.90
14737;DHT22;7459;53.590;10.062;2023-04-15T10:46:45;11.40;99.90
14737;DHT22;7459;53.590;10.062;2023-04-15T10:49:16;11.50;99.90
14737;DHT22;7459;53.590;10.062;2023-04-15T10:51:56;11.50;99.90
14737;DHT22;7459;53.590;10.062;2023-04-15T10:59:31;11.70;99.90
14737;DHT22;7459;53.590;10.062;2023-04-15T11:02:06;11.80;99.90
14737;DHT22;7459;53.590;10.062;2023-04-15T11:04:54;11.90;99.90
14737;DHT22;7459;53.590;10.062;2023-04-15T11:07:40;12.00;99.90
14737;DHT22;7459;53.590;10.062;2023-04-15T11:12:47;12.20;99.90
14737;DHT22;7459;53.590;10.062;2023-04-15T11:17:59;12.40;99.90
14737;DHT22;7459;53.590;10.062;2023-04-15T11:20:44;12.40;99.90
14737;DHT22;7459;53.590;10.062;2023-04-15T11:23:12;12.50;99.90
14737;DHT22;7459;53.590;10.062;2023-04-15T11:25:39;12.40;99.90
14737;DHT22;7459;53.590;10.062;2023-04-15T11:28:05;12.40;99.90
14737;DHT22;7459;53.590;10.062;2023-04-15T11:30:34;12.40;99.90
14737;DHT22;7459;53.590;10.062;2023-04-15T11:33:03;12.50;99.90
14737;DHT22;7459;53.590;10.062;2023-04-15T11:35:30;12.40;99.90
14737;DHT22;7459;53.590;10.062;2023-04-15T11:37:56;12.40;99.90
14737;DHT22;7459;53.590;10.062;2023-04-15T11:40:28;12.40;99.90
14737;DHT22;7459;53.590;10.062;2023-04-15T11:43:13;12.40;99.90
14737;DHT22;7459;53.590;10.062;2023-04-15T11:45:56;12.40;99.90
14737;DHT22;7459;53.590;10.062;2023-04-15T11:48:29;12.40;99.90
14737;DHT22;7459;53.590;10.062;2023-04-15T11:50:58;12.30;99.90
14737;DHT22;7459;53.590;10.062;2023-04-15T11:53:44;12.30;99.90
14737;DHT22;7459;53.590;10.062;2023-04-15T11:56:21;12.30;99.90
14737;DHT22;7459;53.590;10.062;2023-04-15T11:58:51;12.30;99.90
14737;DHT22;7459;53.590;10.062;2023-04-15T12:01:34;12.40;99.90
14737;DHT22;7459;53.590;10.062;2023-04-15T12:04:01;12.40;99.90
14737;DHT22;7459;53.590;10.062;2023-04-15T12:06:35;12.40;99.90
14737;DHT22;7459;53.590;10.062;2023-04-15T12:11:37;12.40;99.90
14737;DHT22;7459;53.590;10.062;2023-04-15T12:14:30;12.50;99.90
14737;DHT22;7459;53.590;10.062;2023-04-15T12:17:04;12.40;99.90
14737;DHT22;7459;53.590;10.062;2023-04-15T12:19:36;12.40;99.90
14737;DHT22;7459;53.590;10.062;2023-04-15T12:24:32;12.30;99.90
14737;DHT22;7459;53.590;10.062;2023-04-15T12:27:03;12.40;99.90
14737;DHT22;7459;53.590;10.062;2023-04-15T12:29:30;12.30;99.90
14737;DHT22;7459;53.590;10.062;2023-04-15T12:32:03;12.30;99.90
14737;DHT22;7459;53.590;10.062;2023-04-15T12:34:40;12.30;99.90
14737;DHT22;7459;53.590;10.062;2023-04-15T12:37:09;12.30;99.90
14737;DHT22;7459;53.590;10.062;2023-04-15T12:39:37;12.30;99.90
14737;DHT22;7459;53.590;10.062;2023-04-15T12:42:04;12.40;99.90
14737;DHT22;7459;53.590;10.062;2023-04-15T12:44:31;12.40;99.90
14737;DHT22;7459;53.590;10.062;2023-04-15T12:46:57;12.40;99.90
14737;DHT22;7459;53.590;10.062;2023-04-15T12:49:24;12.40;99.90
14737;DHT22;7459;53.590;10.062;2023-04-15T12:51:53;12.40;99.90
14737;DHT22;7459;53.590;10.062;2023-04-15T12:54:20;12.40;99.90
14737;DHT22;7459;53.590;10.062;2023-04-15T12:56:48;12.40;99.90
14737;DHT22;7459;53.590;10.062;2023-04-15T12:59:14;12.40;99.90
14737;DHT22;7459;53.590;10.062;2023-04-15T13:01:42;12.40;99.90
14737;DHT22;7459;53.590;10.062;2023-04-15T13:04:07;12.40;99.90
14737;DHT22;7459;53.590;10.062;2023-04-15T13:06:33;12.50;99.90
14737;DHT22;7459;53.590;10.062;2023-04-15T13:08:59;12.50;99.90
14737;DHT22;7459;53.590;10.062;2023-04-15T13:11:26;12.50;99.90
14737;DHT22;7459;53.590;10.062;2023-04-15T13:13:53;12.50;99.90
14737;DHT22;7459;53.590;10.062;2023-04-15T13:16:20;12.50;99.90
14737;DHT22;7459;53.590;10.062;2023-04-15T13:18:47;12.60;99.90
14737;DHT22;7459;53.590;10.062;2023-04-15T13:21:13;12.60;99.90
14737;DHT22;7459;53.590;10.062;2023-04-15T13:23:40;12.60;99.90
14737;DHT22;7459;53.590;10.062;2023-04-15T13:26:06;12.60;99.90
14737;DHT22;7459;53.590;10.062;2023-04-15T13:28:32;12.60;99.90
14737;DHT22;7459;53.590;10.062;2023-04-15T13:30:58;12.70;99.90
14737;DHT22;7459;53.590;10.062;2023-04-15T13:33:25;12.60;99.90
14737;DHT22;7459;53.590;10.062;2023-04-15T13:35:51;12.70;99.90
14737;DHT22;7459;53.590;10.062;2023-04-15T13:38:16;12.80;99.90
14737;DHT22;7459;53.590;10.062;2023-04-15T13:40:42;12.70;99.90
14737;DHT22;7459;53.590;10.062;2023-04-15T13:43:08;12.80;99.90
14737;DHT22;7459;53.590;10.062;2023-04-15T13:45:34;12.80;99.90
14737;DHT22;7459;53.590;10.062;2023-04-15T13:48:00;12.90;99.90
14737;DHT22;7459;53.590;10.062;2023-04-15T13:50:26;12.90;99.90
14737;DHT22;7459;53.590;10.062;2023-04-15T13:52:52;13.00;99.90
14737;DHT22;7459;53.590;10.062;2023-04-15T13:55:18;13.10;99.90
14737;DHT22;7459;53.590;10.062;2023-04-15T13:57:44;13.10;99.90
14737;DHT22;7459;53.590;10.062;2023-04-15T14:00:10;13.20;99.90
14737;DHT22;7459;53.590;10.062;2023-04-15T14:02:39;13.30;99.90
14737;DHT22;7459;53.590;10.062;2023-04-15T14:05:05;13.30;99.90
14737;DHT22;7459;53.590;10.062;2023-04-15T14:07:30;13.40;99.90
14737;DHT22;7459;53.590;10.062;2023-04-15T14:09:56;13.50;99.90
14737;DHT22;7459;53.590;10.062;2023-04-15T14:12:22;13.50;99.90
14737;DHT22;7459;53.590;10.062;2023-04-15T14:14:47;13.50;99.90
14737;DHT22;7459;53.590;10.062;2023-04-15T14:17:13;13.60;99.90
14737;DHT22;7459;53.590;10.062;2023-04-15T14:19:39;13.50;99.90
14737;DHT22;7459;53.590;10.062;2023-04-15T14:22:05;13.50;99.90
14737;DHT22;7459;53.590;10.062;2023-04-15T14:24:30;13.60;99.90
14737;DHT22;7459;53.590;10.062;2023-04-15T14:26:57;13.70;99.90
14737;DHT22;7459;53.590;10.062;2023-04-15T14:29:23;13.70;99.90
14737;DHT22;7459;53.590;10.062;2023-04-15T14:31:49;13.80;99.90
14737;DHT22;7459;53.590;10.062;2023-04-15T14:34:15;13.90;99.90
14737;DHT22;7459;53.590;10.062;2023-04-15T14:36:41;13.90;99.90
14737;DHT22;7459;53.590;10.062;2023-04-15T14:39:07;14.00;99.90
14737;DHT22;7459;53.590;10.062;2023-04-15T14:41:34;14.00;99.90
14737;DHT22;7459;53.590;10.062;2023-04-15T14:43:59;14.00;99.90
14737;DHT22;7459;53.590;10.062;2023-04-15T14:46:25;14.00;99.90
14737;DHT22;7459;53.590;10.062;2023-04-15T14:48:51;14.00;99.90
14737;DHT22;7459;53.590;10.062;2023-04-15T14:51:17;13.90;99.90
14737;DHT22;7459;53.590;10.062;2023-04-15T14:53:44;13.90;99.90
14737;DHT22;7459;53.590;10.062;2023-04-15T14:56:10;13.90;99.90
14737;DHT22;7459;53.590;10.062;2023-04-15T14:58:36;13.90;99.90
14737;DHT22;7459;53.590;10.062;2023-04-15T15:01:02;13.80;99.90
14737;DHT22;7459;53.590;10.062;2023-04-15T15:03:29;13.80;99.90
14737;DHT22;7459;53.590;10.062;2023-04-15T15:05:54;13.80;99.90
14737;DHT22;7459;53.590;10.062;2023-04-15T15:08:22;13.70;99.90
14737;DHT22;7459;53.590;10.062;2023-04-15T15:10:47;13.70;99.90
14737;DHT22;7459;53.590;10.062;2023-04-15T15:13:13;13.70;99.90
14737;DHT22;7459;53.590;10.062;2023-04-15T15:15:39;13.60;99.90
14737;DHT22;7459;53.590;10.062;2023-04-15T15:18:05;13.60;99.90
14737;DHT22;7459;53.590;10.062;2023-04-15T15:20:31;13.60;99.90
14737;DHT22;7459;53.590;10.062;2023-04-15T15:22:57;13.50;99.90
14737;DHT22;7459;53.590;10.062;2023-04-15T15:25:23;13.50;99.90
14737;DHT22;7459;53.590;10.062;2023-04-15T15:27:49;13.50;99.90
14737;DHT22;7459;53.590;10.062;2023-04-15T15:30:16;13.40;99.90
14737;DHT22;7459;53.590;10.062;2023-04-15T15:32:42;13.40;99.90
14737;DHT22;7459;53.590;10.062;2023-04-15T15:35:08;13.40;99.90
14737;DHT22;7459;53.590;10.062;2023-04-15T15:37:35;13.40;99.90
14737;DHT22;7459;53.590;10.062;2023-04-15T15:40:03;13.30;99.90
14737;DHT22;7459;53.590;10.062;2023-04-15T15:42:32;13.30;99.90
14737;DHT22;7459;53.590;10.062;2023-04-15T15:44:58;13.30;99.90
14737;DHT22;7459;53.590;10.062;2023-04-15T15:47:24;13.20;99.90
14737;DHT22;7459;53.590;10.062;2023-04-15T15:49:53;13.30;99.90
14737;DHT22;7459;53.590;10.062;2023-04-15T15:52:19;13.20;99.90
14737;DHT22;7459;53.590;10.062;2023-04-15T15:54:45;13.20;99.90
14737;DHT22;7459;53.590;10.062;2023-04-15T15:57:11;13.20;99.90
14737;DHT22;7459;53.590;10.062;2023-04-15T15:59:36;13.20;99.90
14737;DHT22;7459;53.590;10.062;2023-04-15T16:02:11;13.20;99.90